Time;durP1;ratioP1;P1;durP2;ratioP2;P2;SDS_P1;SDS_P2;PMS_P1;PMS_P2;Temp;Humidity;BMP_temperature;BMP_pressure;BME280_temperature;BME280_humidity;BME280_pressure;Samples;Min_cycle;Max_cycle;Signal;HPM_P1;HPM_P2
2022/09/21 00:00:29;;;;;;;6.40;3.30;;;;;;;10.68;100.00;101246.57;4915367;59;1141125;-72
2022/09/21 00:05:36;;;;;;;8.27;3.60;;;;;;;10.56;100.00;101252.17;4989812;59;1141275;-74
2022/09/21 00:10:42;;;;;;;8.00;3.97;;;;;;;10.53;100.00;101247.11;4916573;58;1141165;-73
2022/09/21 00:15:48;;;;;;;8.73;3.90;;;;;;;10.53;100.00;101255.89;4993115;59;1141212;-72
2022/09/21 00:20:54;;;;;;;7.58;4.22;;;;;;;10.49;100.00;101255.70;4991133;59;1141390;-73
2022/09/21 00:26:16;;;;;;;7.70;4.77;;;;;;;10.45;100.00;101254.20;4994125;59;1141089;-73
2022/09/21 00:31:22;;;;;;;9.77;3.93;;;;;;;10.42;100.00;101250.91;4919657;59;1141156;-72
2022/09/21 00:36:28;;;;;;;8.97;3.63;;;;;;;10.40;100.00;101251.00;4911196;59;1141184;-72
2022/09/21 00:41:35;;;;;;;5.70;3.63;;;;;;;10.38;100.00;101246.78;4912891;60;1141160;-72
2022/09/21 00:46:41;;;;;;;4.77;2.93;;;;;;;10.42;100.00;101254.88;4986432;59;1141122;-73
2022/09/21 00:51:48;;;;;;;3.57;2.00;;;;;;;10.42;100.00;101250.91;4994107;59;1141105;-72
2022/09/21 00:57:00;;;;;;;3.17;2.42;;;;;;;10.42;100.00;101246.94;5031193;57;1141197;-73
2022/09/21 01:02:04;;;;;;;3.53;2.67;;;;;;;10.49;100.00;101250.89;5155887;56;1141372;-72
2022/09/21 01:07:16;;;;;;;6.60;2.50;;;;;;;10.51;100.00;101252.97;5155647;57;1141102;-73
2022/09/21 01:12:41;;;;;;;6.53;2.57;;;;;;;10.52;100.00;101259.95;5217480;55;1141049;-73
2022/09/21 01:18:08;;;;;;;6.97;2.30;;;;;;;10.58;100.00;101271.44;5310157;55;1141294;-72
2022/09/21 01:23:31;;;;;;;5.23;2.53;;;;;;;10.56;100.00;101270.21;5310203;55;1139113;-73
2022/09/21 01:28:59;;;;;;;2.63;2.43;;;;;;;10.51;100.00;101275.45;5310124;55;1138885;-73
2022/09/21 01:34:09;;;;;;;2.87;2.10;;;;;;;10.44;100.00;101272.34;5310115;55;1139250;-73
2022/09/21 01:39:17;;;;;;;6.53;2.77;;;;;;;10.40;100.00;101281.41;5231343;55;1139000;-72
2022/09/21 01:44:32;;;;;;;1.70;1.60;;;;;;;10.42;100.00;101279.52;5260745;55;1138962;-73
2022/09/21 01:49:43;;;;;;;8.27;2.63;;;;;;;10.45;100.00;101293.02;5309985;55;1139318;-72
2022/09/21 01:54:56;;;;;;;3.50;2.67;;;;;;;10.46;100.00;101291.61;5309974;55;1136977;-72
2022/09/21 02:00:05;;;;;;;2.80;1.80;;;;;;;10.45;100.00;101282.45;5310367;55;1141000;-72
2022/09/21 02:05:15;;;;;;;2.43;2.10;;;;;;;10.45;100.00;101283.77;5283077;55;1141011;-73
2022/09/21 02:10:28;;;;;;;3.40;1.90;;;;;;;10.45;100.00;101291.70;5310046;55;1141493;-72
2022/09/21 02:16:12;;;;;;;3.90;2.83;;;;;;;10.43;100.00;101293.12;5307901;55;1141166;-72
2022/09/21 02:21:34;;;;;;;1.93;1.77;;;;;;;10.49;100.00;101300.67;5308360;55;1141112;-72
2022/09/21 02:26:56;;;;;;;4.90;1.83;;;;;;;10.55;100.00;101304.22;5265980;55;1141101;-73
2022/09/21 02:32:49;;;;;;;6.70;2.87;;;;;;;10.62;100.00;101303.83;5258981;55;1141049;-71
2022/09/21 02:38:03;;;;;;;1.90;1.70;;;;;;;10.55;100.00;101311.31;5227054;55;1141103;-72
2022/09/21 02:43:20;;;;;;;6.53;2.20;;;;;;;10.50;100.00;101307.66;5163882;56;1141335;-72
2022/09/21 02:48:43;;;;;;;3.23;1.73;;;;;;;10.51;100.00;101304.07;4979090;59;1139001;-72
2022/09/21 02:53:52;;;;;;;4.63;2.00;;;;;;;10.53;100.00;101308.80;4858921;60;1139333;-72
2022/09/21 02:59:01;;;;;;;3.03;1.90;;;;;;;10.60;100.00;101313.66;4977007;59;1139301;-72
2022/09/21 03:04:07;;;;;;;7.97;1.73;;;;;;;10.56;100.00;101315.17;4905856;60;1139289;-73
2022/09/21 03:09:13;;;;;;;2.50;1.70;;;;;;;10.52;100.00;101322.11;4842971;60;1139172;-73
2022/09/21 03:14:19;;;;;;;3.60;1.63;;;;;;;10.49;100.00;101324.47;4940901;59;1139030;-72
2022/09/21 03:19:26;;;;;;;2.00;1.90;;;;;;;10.51;100.00;101324.38;4960851;59;1139211;-73
2022/09/21 03:24:47;;;;;;;3.63;1.63;;;;;;;10.55;100.00;101330.67;5125148;57;1139277;-72
2022/09/21 03:29:53;;;;;;;3.53;1.60;;;;;;;10.57;100.00;101335.39;5228193;55;1139374;-72
2022/09/21 03:34:58;;;;;;;4.70;2.00;;;;;;;10.53;100.00;101332.59;5254782;55;1139043;-72
2022/09/21 03:40:05;;;;;;;8.37;4.40;;;;;;;10.53;100.00;101335.72;5244061;55;1137046;-72
2022/09/21 03:45:13;;;;;;;14.15;5.58;;;;;;;10.49;100.00;101334.20;5189270;56;1136968;-74
2022/09/21 03:50:19;;;;;;;9.30;3.77;;;;;;;10.46;100.00;101336.56;5179872;56;1143153;-73
2022/09/21 03:55:26;;;;;;;5.10;2.90;;;;;;;10.47;100.00;101340.91;5242433;56;1141065;-72
2022/09/21 04:00:32;;;;;;;8.90;2.60;;;;;;;10.43;100.00;101344.69;5242305;56;1140987;-71
2022/09/21 04:05:39;;;;;;;5.37;2.20;;;;;;;10.41;100.00;101341.77;5237868;56;1141303;-72
2022/09/21 04:10:45;;;;;;;5.03;1.90;;;;;;;10.36;100.00;101347.36;5224319;56;1141099;-71
2022/09/21 04:15:50;;;;;;;2.00;1.90;;;;;;;10.38;100.00;101345.95;5242195;56;1141332;-72
2022/09/21 04:20:56;;;;;;;2.30;2.00;;;;;;;10.32;100.00;101348.97;5157538;56;1141005;-72
2022/09/21 04:26:03;;;;;;;2.93;2.63;;;;;;;10.25;100.00;101346.32;5155766;56;1141302;-72
2022/09/21 04:31:09;;;;;;;2.60;1.87;;;;;;;10.23;100.00;101354.84;5210746;56;1141052;-72
2022/09/21 04:36:14;;;;;;;5.23;2.53;;;;;;;10.20;100.00;101353.24;5223073;56;1141009;-72
2022/09/21 04:41:20;;;;;;;3.73;3.20;;;;;;;10.15;100.00;101355.28;5226813;56;1141333;-71
2022/09/21 04:46:26;;;;;;;5.07;2.57;;;;;;;10.11;100.00;101355.09;5243301;55;1140438;-72
2022/09/21 04:51:33;;;;;;;8.73;2.97;;;;;;;10.07;100.00;101353.13;5288401;55;1141052;-73
2022/09/21 04:56:39;;;;;;;5.75;2.98;;;;;;;10.09;100.00;101360.94;5238481;55;1141202;-72
2022/09/21 05:01:44;;;;;;;2.60;2.20;;;;;;;10.05;100.00;101362.94;5242105;55;1141016;-73
2022/09/21 05:06:50;;;;;;;3.90;3.20;;;;;;;10.12;100.00;101359.43;5242063;55;1141408;-72
2022/09/21 05:11:56;;;;;;;4.50;1.90;;;;;;;10.15;100.00;101367.17;5242177;55;1140989;-72
2022/09/21 05:17:02;;;;;;;10.03;2.67;;;;;;;10.18;100.00;101369.64;5241957;55;1141121;-72
2022/09/21 05:22:08;;;;;;;3.62;2.20;;;;;;;10.17;100.00;101383.80;5242055;55;1143469;-74
2022/09/21 05:27:14;;;;;;;2.97;2.37;;;;;;;10.14;100.00;101385.30;5199655;55;1141454;-73
2022/09/21 05:32:30;;;;;;;5.80;2.33;;;;;;;10.15;100.00;101393.14;5075400;57;1141055;-73
2022/09/21 05:37:59;;;;;;;6.27;2.63;;;;;;;10.17;100.00;101399.66;5009318;58;1141127;-73
2022/09/21 05:43:05;;;;;;;5.80;2.20;;;;;;;10.21;100.00;101406.02;4983631;58;1141397;-73
2022/09/21 05:48:23;;;;;;;3.98;3.08;;;;;;;10.31;100.00;101413.37;4919589;59;1141104;-73
2022/09/21 05:54:09;;;;;;;11.80;5.37;;;;;;;10.31;100.00;101410.25;4975041;58;1141299;-73
2022/09/21 05:59:59;;;;;;;8.70;5.37;;;;;;;10.33;100.00;101410.16;5138545;56;1141211;-73
2022/09/21 06:05:11;;;;;;;25.73;14.33;;;;;;;10.36;100.00;101417.91;5164090;56;1139218;-73
2022/09/21 06:10:18;;;;;;;6.60;4.10;;;;;;;10.36;100.00;101420.55;5162998;56;1143102;-74
2022/09/21 06:15:23;;;;;;;35.50;14.67;;;;;;;10.41;100.00;101424.59;5175131;56;1139264;-74
2022/09/21 06:20:29;;;;;;;10.20;5.83;;;;;;;10.45;100.00;101426.58;5136077;56;1143675;-74
2022/09/21 06:25:35;;;;;;;5.03;3.40;;;;;;;10.47;100.00;101426.02;5215857;56;1141127;-73
2022/09/21 06:30:42;;;;;;;3.58;2.72;;;;;;;10.47;100.00;101420.25;5195481;56;1137195;-73
2022/09/21 06:35:57;;;;;;;9.50;5.47;;;;;;;10.49;100.00;101422.80;5196332;56;1137178;-73
2022/09/21 06:41:04;;;;;;;4.83;3.70;;;;;;;10.54;100.00;101428.66;5283416;55;1141146;-73
2022/09/21 06:46:10;;;;;;;13.37;3.20;;;;;;;10.62;100.00;101429.48;5121853;57;1140955;-74
2022/09/21 06:51:16;;;;;;;4.17;2.40;;;;;;;10.69;100.00;101441.39;5281607;55;1143147;-73
2022/09/21 06:56:22;;;;;;;4.10;2.00;;;;;;;10.89;100.00;101441.80;5242585;55;1141313;-73
2022/09/21 07:01:27;;;;;;;17.23;5.73;;;;;;;11.00;100.00;101442.42;5242775;55;1141336;-73
2022/09/21 07:06:33;;;;;;;4.00;2.08;;;;;;;11.04;100.00;101449.23;5242308;55;1143103;-73
2022/09/21 07:11:40;;;;;;;3.37;1.73;;;;;;;11.08;100.00;101455.19;5242587;55;1141037;-73
2022/09/21 07:16:46;;;;;;;1.57;1.47;;;;;;;11.07;100.00;101456.98;5237290;55;1141432;-73
2022/09/21 07:21:55;;;;;;;3.90;1.70;;;;;;;11.09;100.00;101460.37;5142608;57;1141346;-73
2022/09/21 07:27:01;;;;;;;5.30;2.80;;;;;;;11.12;100.00;101453.57;5142450;57;1141204;-73
2022/09/21 07:32:06;;;;;;;2.73;1.97;;;;;;;11.19;100.00;101452.20;5142607;57;1141034;-73
2022/09/21 07:37:13;;;;;;;2.67;1.80;;;;;;;11.27;100.00;101456.55;5161835;56;1141133;-73
2022/09/21 07:42:20;;;;;;;1.43;1.37;;;;;;;11.33;100.00;101459.24;5145211;56;1141118;-73
2022/09/21 07:47:26;;;;;;;4.87;1.70;;;;;;;11.61;100.00;101464.41;5228563;56;1141106;-74
2022/09/21 07:52:32;;;;;;;1.33;1.23;;;;;;;11.76;100.00;101457.29;5193469;56;1141080;-73
2022/09/21 08:03:01;;;;;;;1.67;1.47;;;;;;;11.95;100.00;101455.54;5228409;55;1141124;-73
2022/09/21 08:08:07;;;;;;;4.20;2.10;;;;;;;12.04;100.00;101468.66;5228675;55;1141072;-73
2022/09/21 08:13:14;;;;;;;2.87;1.87;;;;;;;12.12;100.00;101469.81;5210387;55;1141199;-73
2022/09/21 08:18:19;;;;;;;2.87;1.57;;;;;;;12.21;100.00;101467.87;5142063;56;1141163;-74
2022/09/21 08:23:27;;;;;;;3.53;1.67;;;;;;;12.55;100.00;101456.20;5144277;55;1141370;-73
2022/09/21 08:28:39;;;;;;;4.63;3.00;;;;;;;12.81;100.00;101457.02;5142335;56;1141060;-74
2022/09/21 08:33:45;;;;;;;3.30;2.20;;;;;;;12.99;100.00;101459.64;5142224;57;1141240;-73
2022/09/21 08:38:51;;;;;;;1.87;1.27;;;;;;;13.12;100.00;101461.80;5161734;56;1141145;-73
2022/09/21 08:44:07;;;;;;;2.40;1.77;;;;;;;13.28;100.00;101459.74;5172658;56;1141100;-73
2022/09/21 08:49:23;;;;;;;9.63;1.77;;;;;;;13.41;100.00;101457.02;5210270;56;1141047;-73
2022/09/21 08:54:41;;;;;;;6.43;2.60;;;;;;;13.46;100.00;101463.30;5217680;56;1141074;-73
2022/09/21 08:59:50;;;;;;;3.77;2.77;;;;;;;13.54;100.00;101464.44;5199116;56;1139085;-75
2022/09/21 09:05:17;;;;;;;3.67;2.20;;;;;;;13.62;100.00;101467.35;5157106;56;1139170;-74
2022/09/21 09:10:58;;;;;;;2.27;1.53;;;;;;;13.72;100.00;101466.20;5140340;56;1139047;-74
2022/09/21 09:16:27;;;;;;;1.60;1.27;;;;;;;13.81;100.00;101461.50;5220336;55;1139000;-74
2022/09/21 09:21:40;;;;;;;1.47;1.37;;;;;;;13.96;100.00;101458.15;5223160;56;1141432;-73
2022/09/21 09:27:01;;;;;;;2.40;1.45;;;;;;;14.15;100.00;101457.58;5237538;56;1140995;-74
2022/09/21 09:32:14;;;;;;;1.03;1.00;;;;;;;14.15;100.00;101461.09;5237352;55;1141075;-74
2022/09/21 09:37:27;;;;;;;5.43;1.33;;;;;;;14.14;100.00;101459.39;5177937;56;1141327;-73
2022/09/21 09:42:53;;;;;;;1.90;1.57;;;;;;;14.14;99.85;101458.06;5220326;56;1140570;-73
2022/09/21 09:48:25;;;;;;;6.33;1.63;;;;;;;14.12;99.71;101457.33;5181495;56;1138999;-73
2022/09/21 09:53:32;;;;;;;4.03;2.50;;;;;;;14.21;100.00;101459.27;5304529;55;1138962;-73
2022/09/21 09:58:54;;;;;;;11.27;4.23;;;;;;;14.31;100.00;101463.41;5331489;55;1141138;-73
2022/09/21 10:04:16;;;;;;;3.70;1.27;;;;;;;14.39;100.00;101459.16;5331915;55;1143175;-73
2022/09/21 10:09:32;;;;;;;4.73;1.40;;;;;;;14.58;99.73;101459.08;5270768;55;1141052;-73
2022/09/21 10:14:38;;;;;;;7.10;1.93;;;;;;;14.66;98.67;101459.33;5187763;56;1139045;-74
2022/09/21 10:19:43;;;;;;;9.17;2.40;;;;;;;14.66;97.77;101456.67;5067342;58;1138965;-73
2022/09/21 10:24:55;;;;;;;3.77;2.10;;;;;;;14.62;98.00;101454.73;5093303;57;1138965;-74
2022/09/21 10:30:00;;;;;;;5.20;2.23;;;;;;;14.81;99.15;101449.27;5155509;56;1137003;-73
2022/09/21 10:35:11;;;;;;;1.03;1.03;;;;;;;14.98;98.74;101448.23;5190494;56;1137157;-74
2022/09/21 10:40:26;;;;;;;3.97;1.33;;;;;;;15.08;97.95;101447.02;5156172;57;1136909;-74
2022/09/21 10:45:36;;;;;;;1.20;1.10;;;;;;;15.21;97.27;101442.38;5111069;57;1136956;-74
2022/09/21 10:50:50;;;;;;;1.67;1.03;;;;;;;15.55;97.18;101439.58;5313461;55;1136844;-74
2022/09/21 10:56:00;;;;;;;3.50;0.87;;;;;;;15.80;96.49;101429.88;5331998;55;1137053;-74
2022/09/21 11:01:22;;;;;;;1.57;0.80;;;;;;;16.02;91.71;101427.09;5253354;55;1136939;-74
2022/09/21 11:06:34;;;;;;;1.27;1.10;;;;;;;16.21;87.48;101426.80;5241932;55;1136789;-73
2022/09/21 11:12:06;;;;;;;1.27;0.77;;;;;;;16.11;86.31;101422.28;5243195;55;1135119;-74
2022/09/21 11:17:50;;;;;;;1.30;1.20;;;;;;;15.86;83.88;101422.70;5242538;55;1138924;-74
2022/09/21 11:23:26;;;;;;;2.17;1.30;;;;;;;15.61;86.08;101433.25;5228976;56;1138909;-74
2022/09/21 11:28:37;;;;;;;0.90;0.90;;;;;;;15.27;88.04;101435.70;5219158;56;1139009;-73
2022/09/21 11:34:02;;;;;;;0.90;0.90;;;;;;;14.82;90.94;101436.31;5249588;55;1139006;-74
2022/09/21 11:39:21;;;;;;;2.97;0.83;;;;;;;14.52;93.11;101436.92;5231583;55;1138945;-73
2022/09/21 11:44:49;;;;;;;1.87;1.30;;;;;;;14.39;95.15;101435.20;5182402;55;1138930;-74
2022/09/21 11:50:49;;;;;;;1.80;0.70;;;;;;;14.48;99.01;101357.82;5228480;56;1138970;-73
2022/09/21 11:56:28;;;;;;;1.17;0.80;;;;;;;14.89;97.51;101425.50;5133777;57;1136896;-73
2022/09/21 12:01:47;;;;;;;1.77;0.80;;;;;;;15.26;97.44;101430.86;5095644;56;1137105;-74
2022/09/21 12:07:19;;;;;;;0.90;0.90;;;;;;;15.51;93.75;101434.13;5216623;56;1134984;-74
2022/09/21 12:12:48;;;;;;;0.80;0.80;;;;;;;15.79;94.14;101421.52;5219016;56;1139010;-74
2022/09/21 12:18:22;;;;;;;1.20;0.77;;;;;;;15.67;92.17;101408.75;5219161;56;1138946;-74
2022/09/21 12:23:35;;;;;;;0.90;0.90;;;;;;;15.68;89.60;101411.78;5175600;56;1138913;-74
2022/09/21 12:28:48;;;;;;;4.17;1.17;;;;;;;16.11;92.04;101408.09;5223623;56;1139041;-73
2022/09/21 12:34:02;;;;;;;;;;;;;;;16.07;85.72;101413.33;5232039;56;1139176;-73
2022/09/21 12:39:20;;;;;;;0.90;0.90;;;;;;;15.86;87.60;101406.70;5225409;56;976263;-73
2022/09/21 12:44:53;;;;;;;2.00;0.90;;;;;;;15.71;86.86;101404.86;5228515;56;1136844;-73
2022/09/21 12:50:03;;;;;;;1.30;1.20;;;;;;;15.56;87.86;101410.16;5228532;56;1139011;-73
2022/09/21 12:55:34;;;;;;;6.33;0.90;;;;;;;15.43;88.45;101424.09;5152925;56;1138917;-73
2022/09/21 13:00:56;;;;;;;2.77;0.90;;;;;;;15.23;88.17;101420.45;5291236;55;1136914;-74
2022/09/21 13:06:15;;;;;;;0.87;0.70;;;;;;;15.02;88.77;101415.05;5234252;55;1136870;-73
2022/09/21 13:11:24;;;;;;;0.90;0.73;;;;;;;15.03;89.96;101412.75;5156036;56;1137069;-74
2022/09/21 13:16:37;;;;;;;2.70;0.90;;;;;;;14.93;90.55;101407.83;5142180;57;1136949;-73
2022/09/21 13:21:43;;;;;;;0.60;0.60;;;;;;;14.98;91.40;101404.77;5150661;56;1136847;-74
2022/09/21 13:26:55;;;;;;;1.00;0.90;;;;;;;15.02;91.13;101400.88;5202560;56;1136974;-73
2022/09/21 13:32:12;;;;;;;1.10;0.90;;;;;;;15.16;91.39;101403.74;5153825;57;1136944;-73
2022/09/21 13:37:29;;;;;;;1.13;1.00;;;;;;;15.39;91.86;101400.02;5197857;56;1139086;-73
2022/09/21 13:42:39;;;;;;;3.00;1.00;;;;;;;15.81;91.84;101395.56;5162562;55;1139014;-74
2022/09/21 13:47:54;;;;;;;1.73;0.80;;;;;;;15.94;88.45;101394.02;5241986;55;1139015;-74
2022/09/21 13:53:05;;;;;;;1.50;1.13;;;;;;;15.89;87.64;101394.41;5242004;56;1139041;-74
2022/09/21 13:58:36;;;;;;;1.63;1.27;;;;;;;15.63;87.01;101393.97;5241985;56;1138967;-73
2022/09/21 14:03:56;;;;;;;4.00;1.30;;;;;;;15.57;88.50;101398.52;5241946;56;1139023;-73
2022/09/21 14:09:07;;;;;;;1.63;1.20;;;;;;;15.69;89.17;101394.80;5238724;56;1138960;-73
2022/09/21 14:14:38;;;;;;;1.80;1.10;;;;;;;15.80;87.69;101389.87;5243157;56;1139126;-74
2022/09/21 14:19:57;;;;;;;2.50;1.30;;;;;;;16.03;87.28;101381.23;5242630;56;1139068;-73
2022/09/21 14:25:27;;;;;;;2.80;1.63;;;;;;;16.30;83.73;101385.49;5242225;56;1139296;-74
2022/09/21 14:30:36;;;;;;;1.20;0.67;;;;;;;16.48;82.54;101378.53;5232537;56;1139063;-73
2022/09/21 14:35:45;;;;;;;0.64;0.64;;;;;;;16.63;83.17;101384.86;5232961;56;1138965;-74
2022/09/21 14:40:56;;;;;;;0.73;0.70;;;;;;;16.66;83.18;101379.22;5242649;56;1137052;-74
2022/09/21 14:46:29;;;;;;;1.50;0.83;;;;;;;16.63;83.58;101376.84;5242366;55;1137003;-73
2022/09/21 14:51:51;;;;;;;0.97;0.80;;;;;;;16.72;84.23;101367.50;5195241;56;1136974;-73
2022/09/21 14:57:39;;;;;;;0.97;0.90;;;;;;;16.81;82.82;101372.49;5180683;55;1136896;-74
2022/09/21 15:02:47;;;;;;;2.07;1.00;;;;;;;16.74;83.77;101370.04;5156193;57;1138977;-73
2022/09/21 15:14:02;;;;;;;1.57;1.30;;;;;;;16.58;83.59;101369.69;5156510;56;1139140;-74
2022/09/21 15:19:24;;;;;;;3.23;1.93;;;;;;;16.56;83.97;101364.97;5165942;56;1138879;-74
2022/09/21 15:24:34;;;;;;;3.77;2.50;;;;;;;16.55;83.36;101361.45;5148183;57;1139203;-75
2022/09/21 15:29:47;;;;;;;3.47;2.20;;;;;;;16.61;84.10;101360.92;5142524;56;1139409;-74
2022/09/21 15:35:02;;;;;;;5.77;1.77;;;;;;;16.72;81.25;101363.98;5150508;56;1139145;-74
2022/09/21 15:40:21;;;;;;;2.93;1.70;;;;;;;16.73;80.41;101363.00;5203678;55;1138936;-75
2022/09/21 15:45:32;;;;;;;8.23;3.73;;;;;;;16.79;79.11;101363.80;5192669;56;1138934;-75
2022/09/21 15:50:41;;;;;;;2.57;1.43;;;;;;;16.65;77.38;101365.02;5191964;55;1139178;-75
2022/09/21 15:55:49;;;;;;;1.03;0.93;;;;;;;16.56;78.23;101372.49;5180209;55;1138986;-74
2022/09/21 16:00:57;;;;;;;2.10;1.00;;;;;;;16.48;78.82;101370.52;5183321;56;1138951;-75
2022/09/21 16:06:23;;;;;;;4.33;1.20;;;;;;;16.54;78.47;101365.95;5198278;56;1139252;-74
2022/09/21 16:11:34;;;;;;;2.20;1.93;;;;;;;16.58;79.34;101365.69;5185319;56;1136851;-74
2022/09/21 16:17:15;;;;;;;6.90;3.40;;;;;;;16.46;78.71;101373.81;5185253;55;1137014;-75
2022/09/21 16:22:43;;;;;;;9.70;5.13;;;;;;;16.34;79.13;101380.25;5186314;56;1136906;-66
2022/09/21 16:28:02;;;;;;;15.40;10.77;;;;;;;16.27;79.41;101393.77;5166693;56;1134802;-69
2022/09/21 16:33:38;;;;;;;27.47;15.90;;;;;;;16.07;79.67;101398.64;5185520;55;1143310;-63
2022/09/21 16:38:46;;;;;;;13.70;10.63;;;;;;;15.89;79.95;101396.26;5224875;55;1143158;-65
2022/09/21 16:43:56;;;;;;;13.60;9.33;;;;;;;15.78;80.91;101405.16;5238560;55;1143266;-66
2022/09/21 16:49:01;;;;;;;20.13;11.43;;;;;;;15.73;81.59;101413.58;5112202;57;1141027;-68
2022/09/21 16:54:07;;;;;;;87.37;46.20;;;;;;;15.59;81.72;101425.02;5064219;57;1143169;-71
2022/09/21 16:59:22;;;;;;;70.03;40.47;;;;;;;15.59;81.72;101425.02;5062093;57;1143143;-67
2022/09/21 17:04:30;;;;;;;55.47;29.47;;;;;;;15.39;81.63;101431.53;5156930;56;1143149;-69
2022/09/21 17:09:43;;;;;;;42.07;24.00;;;;;;;15.24;82.16;101437.28;5199337;56;1143425;-67
2022/09/21 17:14:50;;;;;;;26.80;18.13;;;;;;;15.09;82.48;101439.39;5198865;56;1143664;-69
2022/09/21 17:19:56;;;;;;;19.40;12.37;;;;;;;15.00;82.80;101444.97;5074669;57;1143447;-69
2022/09/21 17:25:01;;;;;;;14.17;7.50;;;;;;;14.98;83.16;101451.38;4996089;58;1143716;-66
2022/09/21 17:30:11;;;;;;;14.07;7.90;;;;;;;14.99;83.19;101453.08;5031634;58;1141659;-63
2022/09/21 17:35:39;;;;;;;13.10;6.90;;;;;;;14.98;83.35;101453.56;5190989;56;1141437;-65
2022/09/21 17:40:45;;;;;;;9.63;5.90;;;;;;;14.94;83.39;101460.62;5142134;57;1141257;-67
2022/09/21 17:46:04;;;;;;;9.90;5.87;;;;;;;14.82;82.97;101469.09;5185639;56;1139519;-72
2022/09/21 17:53:32;;;;;;;12.53;5.80;;;;;;;14.61;82.66;101469.48;5169237;56;1139203;-66
2022/09/21 17:56:50;;;;;;;24.17;10.10;;;;;;;14.36;83.04;101473.22;5211756;56;1141305;-67
2022/09/21 18:01:58;;;;;;;56.87;21.87;;;;;;;14.34;83.98;101478.66;5215444;56;1140949;-69
2022/09/21 18:07:03;;;;;;;53.90;23.62;;;;;;;14.33;84.28;101474.78;5104264;57;1141297;-67
2022/09/21 18:12:29;;;;;;;67.37;30.73;;;;;;;14.36;84.46;101474.55;5186737;56;1141049;-65
2022/09/21 18:17:57;;;;;;;72.63;35.40;;;;;;;14.23;84.02;101481.28;5164828;56;1141305;-66
2022/09/21 18:23:25;;;;;;;69.93;37.87;;;;;;;14.01;83.77;101486.58;5085502;57;1139144;-69
2022/09/21 18:28:46;;;;;;;47.83;25.87;;;;;;;13.82;84.37;101481.81;5199247;55;1143384;-68
2022/09/21 18:34:12;;;;;;;42.27;21.90;;;;;;;13.79;85.14;101487.83;5238110;55;1143202;-69
2022/09/21 18:39:42;;;;;;;39.20;24.27;;;;;;;13.78;85.87;101497.62;5155332;55;1143127;-67
2022/09/21 18:45:07;;;;;;;43.27;25.00;;;;;;;13.72;86.12;101501.61;5160040;56;1143438;-63
2022/09/21 18:50:30;;;;;;;19.10;11.27;;;;;;;13.59;85.81;101496.00;5141343;56;1143054;-69
2022/09/21 18:55:36;;;;;;;31.50;18.87;;;;;;;13.29;86.01;101498.60;5160947;56;1143093;-66
2022/09/21 19:00:42;;;;;;;24.57;14.03;;;;;;;13.32;87.43;101496.20;5214727;56;1143003;-67
2022/09/21 19:06:24;;;;;;;30.67;16.70;;;;;;;13.46;87.94;101492.05;5219384;56;1143192;-67
2022/09/21 19:12:08;;;;;;;28.83;17.17;;;;;;;13.54;87.99;101500.31;5221069;56;1143111;-65
2022/09/21 19:17:44;;;;;;;47.03;25.97;;;;;;;13.63;88.38;101505.41;5185474;56;1141118;-67
2022/09/21 19:23:10;;;;;;;37.87;19.27;;;;;;;13.58;87.84;101509.77;5228450;56;1141397;-65
2022/09/21 19:28:45;;;;;;;29.30;16.17;;;;;;;13.44;87.86;101502.45;5210793;55;1138914;-69
2022/09/21 19:33:51;;;;;;;26.43;15.23;;;;;;;13.33;88.31;101504.55;5206347;56;1142493;-66
2022/09/21 19:38:58;;;;;;;40.30;17.33;;;;;;;13.30;88.59;101512.73;5191606;56;1143103;-68
2022/09/21 19:44:20;;;;;;;36.07;15.57;;;;;;;13.29;88.56;101509.74;5164474;56;1143123;-70
2022/09/21 19:49:32;;;;;;;25.73;12.03;;;;;;;13.26;88.52;101517.45;5209395;56;1143359;-66
2022/09/21 20:00:02;;;;;;;21.37;9.00;;;;;;;13.32;89.31;101520.12;5210922;56;1143122;-69
2022/09/21 20:05:46;;;;;;;29.30;10.85;;;;;;;13.23;88.93;101524.31;5197210;56;1141217;-70
2022/09/21 20:11:04;;;;;;;25.20;9.83;;;;;;;13.04;89.08;101529.21;5172906;56;1143190;-67
2022/09/21 20:16:30;;;;;;;38.70;11.27;;;;;;;12.92;89.78;101528.77;5206542;55;1141399;-68
2022/09/21 20:21:41;;;;;;;32.30;9.90;;;;;;;12.95;90.40;101526.75;5241573;55;1143466;-66
2022/09/21 20:26:50;;;;;;;26.33;8.57;;;;;;;13.00;90.40;101530.38;5204659;56;1141585;-66
2022/09/21 20:31:59;;;;;;;27.23;10.67;;;;;;;13.03;90.56;101526.19;5239806;56;1141467;-70
2022/09/21 20:37:13;;;;;;;25.30;8.63;;;;;;;12.96;90.93;101529.78;5204854;56;1141421;-71
2022/09/21 20:42:22;;;;;;;34.57;13.27;;;;;;;13.00;91.19;101528.58;5191082;56;1138994;-68
2022/09/21 20:47:29;;;;;;;26.30;12.87;;;;;;;12.96;90.97;101530.25;5215985;56;1141340;-67
2022/09/21 20:52:34;;;;;;;17.17;7.83;;;;;;;12.95;91.16;101532.54;5220240;56;1141072;-67
2022/09/21 20:57:40;;;;;;;19.87;8.27;;;;;;;12.93;91.11;101527.81;5185971;56;1139014;-71
2022/09/21 21:02:46;;;;;;;25.80;11.57;;;;;;;12.88;90.75;101522.82;5221411;56;1138985;-67
2022/09/21 21:07:51;;;;;;;34.50;13.90;;;;;;;12.85;90.48;101524.36;5201229;56;1141063;-64
2022/09/21 21:13:00;;;;;;;23.67;10.10;;;;;;;12.84;90.64;101523.98;5165797;56;1141150;-69
2022/09/21 21:18:12;;;;;;;29.30;10.60;;;;;;;12.81;90.62;101536.17;5194326;56;1141133;-67
2022/09/21 21:23:18;;;;;;;24.90;9.13;;;;;;;12.64;90.14;101525.89;5188814;56;1141243;-68
2022/09/21 21:28:26;;;;;;;18.40;7.27;;;;;;;12.56;90.41;101529.07;5076242;57;1139249;-68
2022/09/21 21:33:31;;;;;;;13.77;5.63;;;;;;;12.45;90.23;101527.65;5064726;58;1139003;-68
2022/09/21 21:38:37;;;;;;;14.20;5.93;;;;;;;12.36;90.16;101523.47;5132602;57;1139243;-66
2022/09/21 21:43:43;;;;;;;15.20;6.07;;;;;;;12.30;90.39;101534.02;5121732;57;1138933;-68
2022/09/21 21:48:50;;;;;;;24.83;10.67;;;;;;;12.31;90.48;101535.72;5065613;58;1137024;-67
2022/09/21 21:53:55;;;;;;;45.63;18.53;;;;;;;12.29;90.48;101531.84;5130536;57;1139270;-65
2022/09/21 21:59:01;;;;;;;27.13;11.80;;;;;;;12.17;89.72;101514.59;5149109;57;1143624;-69
2022/09/21 22:04:07;;;;;;;29.03;12.30;;;;;;;11.77;89.19;101519.06;5148722;57;1143309;-67
2022/09/21 22:09:15;;;;;;;23.38;11.20;;;;;;;11.61;90.45;101513.90;5147894;57;1143192;-67
2022/09/21 22:14:21;;;;;;;23.03;10.87;;;;;;;11.62;90.71;101522.22;5147665;57;1143203;-66
2022/09/21 22:19:27;;;;;;;33.30;12.03;;;;;;;11.57;90.52;101522.55;5102487;57;1143480;-69
2022/09/21 22:24:33;;;;;;;25.60;11.27;;;;;;;11.55;90.63;101517.82;5064536;58;1143135;-68
2022/09/21 22:29:39;;;;;;;24.30;11.22;;;;;;;11.53;90.63;101513.56;5135615;57;1143361;-65
2022/09/21 22:34:45;;;;;;;24.18;10.85;;;;;;;11.51;90.53;101520.77;5212777;55;1143115;-68
2022/09/21 22:39:51;;;;;;;28.20;12.30;;;;;;;11.39;90.24;101515.80;5140544;56;1143255;-68
2022/09/21 22:44:57;;;;;;;40.73;18.50;;;;;;;11.21;89.82;101513.02;5189841;56;1143282;-66
2022/09/21 22:50:03;;;;;;;39.80;19.43;;;;;;;10.84;89.21;101510.55;5228231;56;1143308;-69
2022/09/21 22:55:09;;;;;;;38.73;18.50;;;;;;;10.73;90.44;101514.31;5226691;56;1143181;-67
2022/09/21 23:00:15;;;;;;;34.10;15.13;;;;;;;10.72;90.54;101529.81;5225848;55;1143106;-64
2022/09/21 23:05:22;;;;;;;36.97;16.67;;;;;;;10.64;90.11;101517.08;5225917;55;1143366;-68
2022/09/21 23:10:28;;;;;;;28.30;15.13;;;;;;;10.66;90.96;101519.62;5225699;55;1143045;-70
2022/09/21 23:15:34;;;;;;;26.30;13.67;;;;;;;10.69;90.86;101515.48;5182251;56;1143095;-66
2022/09/21 23:20:40;;;;;;;31.73;14.50;;;;;;;10.63;90.14;101525.10;5139496;57;1143363;-70
2022/09/21 23:25:46;;;;;;;30.53;14.27;;;;;;;10.42;89.52;101524.14;5157558;56;1143351;-67
2022/09/21 23:30:52;;;;;;;20.60;10.10;;;;;;;10.22;89.37;101531.13;5171201;56;1143181;-69
2022/09/21 23:35:58;;;;;;;20.17;9.43;;;;;;;9.88;88.99;101533.09;5108084;57;1143467;-66
2022/09/21 23:41:07;;;;;;;13.30;7.20;;;;;;;9.63;89.51;101532.78;4913963;59;1139406;-64
2022/09/21 23:46:18;;;;;;;21.03;8.57;;;;;;;9.50;90.38;101530.00;4898098;59;1138903;-67